Time;durP1;ratioP1;P1;durP2;ratioP2;P2;SDS_P1;SDS_P2;PMS_P1;PMS_P2;Temp;Humidity;BMP_temperature;BMP_pressure;BME280_temperature;BME280_humidity;BME280_pressure;Samples;Min_cycle;Max_cycle;Signal;HPM_P1;HPM_P2
2022/01/07 00:01:52;;;;;;;15.50;6.15;;;;;;;2.49;77.96;101415.75;5023298;28;20034;-69
2022/01/07 00:04:17;;;;;;;15.93;6.95;;;;;;;2.50;77.87;101414.81;5032842;28;20467;-69
2022/01/07 00:06:42;;;;;;;14.85;6.57;;;;;;;2.48;78.53;101407.03;5019155;28;20105;-69
2022/01/07 00:09:07;;;;;;;13.85;6.32;;;;;;;2.48;78.01;101406.16;5028359;28;20048;-70
2022/01/07 00:11:33;;;;;;;18.02;6.68;;;;;;;2.49;78.50;101398.25;5030119;28;20018;-69
2022/01/07 00:13:58;;;;;;;12.60;6.15;;;;;;;2.49;78.73;101398.25;5032463;28;20030;-69
2022/01/07 00:16:23;;;;;;;12.18;5.78;;;;;;;2.49;77.98;101389.53;5023147;28;20053;-70
2022/01/07 00:18:48;;;;;;;11.85;5.55;;;;;;;2.49;77.90;101379.91;5032042;28;20037;-69
2022/01/07 00:21:14;;;;;;;11.82;5.47;;;;;;;2.47;79.07;101378.25;5032511;28;20479;-69
2022/01/07 00:23:39;;;;;;;17.35;6.18;;;;;;;2.46;78.57;101372.13;5020712;28;20039;-69
2022/01/07 00:26:05;;;;;;;14.43;6.18;;;;;;;2.51;78.48;101369.34;5028870;28;20487;-68
2022/01/07 00:28:30;;;;;;;14.48;6.22;;;;;;;2.46;78.81;101369.50;5027677;28;20025;-68
2022/01/07 00:30:55;;;;;;;13.07;5.25;;;;;;;2.46;78.83;101366.88;5032110;28;20018;-69
2022/01/07 00:33:21;;;;;;;13.20;5.43;;;;;;;2.43;79.20;101364.38;5032038;28;20124;-69
2022/01/07 00:35:47;;;;;;;13.85;6.20;;;;;;;2.41;79.52;101355.72;5027355;28;20053;-68
2022/01/07 00:38:12;;;;;;;14.45;6.18;;;;;;;2.42;80.26;101354.81;5024693;28;20201;-68
2022/01/07 00:40:38;;;;;;;11.88;5.50;;;;;;;2.39;80.45;101349.66;5027921;28;20100;-68
2022/01/07 00:43:04;;;;;;;20.20;6.30;;;;;;;2.36;80.39;101342.75;5020935;28;20021;-68
2022/01/07 00:45:29;;;;;;;17.55;6.25;;;;;;;2.37;80.27;101336.59;5031510;28;20033;-70
2022/01/07 00:47:56;;;;;;;12.73;5.97;;;;;;;2.37;80.32;101331.38;5018854;28;20033;-68
2022/01/07 00:50:22;;;;;;;16.05;5.88;;;;;;;2.34;80.08;101331.47;5026473;28;20045;-68
2022/01/07 00:52:48;;;;;;;8.80;5.07;;;;;;;2.32;80.10;101328.06;5029742;28;20021;-69
2022/01/07 00:55:15;;;;;;;12.38;5.75;;;;;;;2.32;80.69;101311.47;5029898;28;20536;-69
2022/01/07 00:57:41;;;;;;;13.73;6.18;;;;;;;2.32;80.33;101309.69;5022494;28;20029;-68
2022/01/07 01:00:12;;;;;;;9.43;5.43;;;;;;;2.30;80.92;101314.16;5028007;28;20029;-69
2022/01/07 01:02:37;;;;;;;13.02;5.93;;;;;;;2.30;81.03;101306.28;5026138;28;20245;-68
2022/01/07 01:05:08;;;;;;;14.27;5.35;;;;;;;2.31;80.69;101301.88;5026064;28;20035;-68
2022/01/07 01:07:34;;;;;;;13.00;6.13;;;;;;;2.29;80.52;101299.31;5030579;28;20099;-69
2022/01/07 01:09:59;;;;;;;12.82;5.03;;;;;;;2.31;80.93;101292.25;5029619;28;20025;-69
2022/01/07 01:12:24;;;;;;;13.23;5.18;;;;;;;2.29;80.72;101288.84;5019077;28;20104;-69
2022/01/07 01:14:50;;;;;;;12.02;6.10;;;;;;;2.31;80.48;101281.75;5031295;28;20053;-69
2022/01/07 01:17:15;;;;;;;10.45;4.70;;;;;;;2.32;79.91;101285.25;5018101;28;20026;-69
2022/01/07 01:19:40;;;;;;;13.20;4.85;;;;;;;2.33;80.31;101282.59;5031229;28;20052;-69
2022/01/07 01:22:06;;;;;;;12.18;5.10;;;;;;;2.33;80.25;101281.72;5031146;28;20024;-68
2022/01/07 01:24:32;;;;;;;14.40;4.80;;;;;;;2.32;80.20;101275.63;5029880;28;20499;-68
2022/01/07 01:26:57;;;;;;;10.18;4.68;;;;;;;2.35;79.58;101266.81;5026346;28;20029;-68
2022/01/07 01:29:22;;;;;;;9.95;4.93;;;;;;;2.34;79.92;101265.94;5028997;28;20029;-68
2022/01/07 01:31:49;;;;;;;11.82;4.40;;;;;;;2.35;80.03;101266.81;5026923;28;20091;-69
2022/01/07 01:34:15;;;;;;;13.00;4.80;;;;;;;2.34;79.91;101260.69;5031011;28;20033;-69
2022/01/07 01:36:40;;;;;;;15.57;5.07;;;;;;;2.35;79.29;101261.56;5023662;28;20030;-69
2022/01/07 01:39:05;;;;;;;10.68;4.78;;;;;;;2.36;79.50;101250.16;5030589;28;20033;-69
2022/01/07 01:41:31;;;;;;;9.63;4.95;;;;;;;2.35;79.55;101254.56;5021444;28;20030;-69
2022/01/07 01:43:57;;;;;;;15.13;4.78;;;;;;;2.36;79.43;101243.13;5028531;28;20037;-70
2022/01/07 01:46:22;;;;;;;10.52;4.63;;;;;;;2.37;79.66;101239.63;5031027;28;20069;-69
2022/01/07 01:48:48;;;;;;;9.43;4.47;;;;;;;2.39;79.30;101234.31;5019064;28;20034;-69
2022/01/07 01:51:14;;;;;;;8.68;4.60;;;;;;;2.38;79.85;101228.22;5030686;28;20101;-69
2022/01/07 01:53:40;;;;;;;9.80;4.80;;;;;;;2.41;79.36;101227.25;5030717;28;20040;-69
2022/01/07 01:56:05;;;;;;;9.80;4.47;;;;;;;2.44;78.41;101218.44;5022736;28;20025;-69
2022/01/07 01:58:31;;;;;;;12.18;4.40;;;;;;;2.42;78.27;101213.25;5031045;28;20037;-69
2022/01/07 02:00:57;;;;;;;10.15;4.10;;;;;;;2.43;78.63;101221.94;5030538;28;20033;-69
2022/01/07 02:03:22;;;;;;;9.20;3.60;;;;;;;2.44;78.65;101214.03;5024433;28;20375;-67
2022/01/07 02:05:48;;;;;;;12.25;4.65;;;;;;;2.47;78.47;101211.31;5029039;28;20050;-69
2022/01/07 02:08:13;;;;;;;8.80;4.00;;;;;;;2.47;78.79;101208.69;5033441;28;20471;-69
2022/01/07 02:10:39;;;;;;;10.85;4.28;;;;;;;2.51;78.69;101214.66;5019876;28;20025;-69
2022/01/07 02:13:04;;;;;;;8.80;3.72;;;;;;;2.49;78.69;101214.72;5028806;28;20071;-69
2022/01/07 02:15:30;;;;;;;12.70;3.63;;;;;;;2.49;79.17;101214.72;5030367;28;20083;-69
2022/01/07 02:17:57;;;;;;;10.20;3.65;;;;;;;2.50;79.10;101210.31;5030293;28;20057;-69
2022/01/07 02:20:28;;;;;;;14.93;4.07;;;;;;;2.50;79.53;101210.31;5022331;28;20479;-69
2022/01/07 02:22:55;;;;;;;9.25;3.70;;;;;;;2.50;79.88;101205.94;5029865;28;20029;-69
2022/01/07 02:25:20;;;;;;;9.70;3.38;;;;;;;2.48;80.21;101210.41;5030234;28;20317;-69
2022/01/07 02:27:47;;;;;;;5.88;3.63;;;;;;;2.50;80.81;101205.06;5029090;28;20041;-70
2022/01/07 02:30:21;;;;;;;8.95;3.78;;;;;;;2.46;81.56;101196.47;5029904;28;20514;-69
2022/01/07 02:32:47;;;;;;;10.13;3.47;;;;;;;2.43;82.37;101200.97;5030770;28;20032;-69
2022/01/07 02:35:14;;;;;;;11.98;3.70;;;;;;;2.37;82.89;101189.81;5027479;28;20068;-69
2022/01/07 02:37:39;;;;;;;12.57;3.83;;;;;;;2.34;83.56;101200.41;5018426;28;20514;-68
2022/01/07 02:40:07;;;;;;;10.93;3.85;;;;;;;2.30;83.96;101183.09;5030150;28;20021;-68
2022/01/07 02:42:33;;;;;;;8.85;3.70;;;;;;;2.29;84.72;101181.38;5030168;28;20037;-68
2022/01/07 02:44:58;;;;;;;12.07;4.60;;;;;;;2.27;84.85;101191.06;5019294;28;20025;-68
2022/01/07 02:47:26;;;;;;;13.05;4.00;;;;;;;2.25;85.24;101186.78;5025035;28;20116;-68
2022/01/07 02:49:52;;;;;;;8.65;4.18;;;;;;;2.24;85.38;101185.09;5029971;28;20068;-68
2022/01/07 02:52:17;;;;;;;10.02;3.83;;;;;;;2.21;85.91;101183.41;5020748;28;20030;-68
2022/01/07 02:54:42;;;;;;;12.35;4.40;;;;;;;2.19;85.69;101182.63;5029248;28;20471;-67
2022/01/07 02:57:07;;;;;;;12.18;3.67;;;;;;;2.15;86.34;101179.25;5030179;28;20037;-67
2022/01/07 02:59:33;;;;;;;8.55;4.55;;;;;;;2.13;86.92;101178.47;5028191;28;20034;-67
2022/01/07 03:01:58;;;;;;;11.00;4.45;;;;;;;2.10;86.87;101173.34;5028339;28;20391;-65
2022/01/07 03:04:26;;;;;;;9.95;4.63;;;;;;;2.09;87.31;101170.78;5021533;28;20032;-67
2022/01/07 03:06:52;;;;;;;9.02;3.92;;;;;;;2.05;87.85;101172.66;5029649;28;20552;-65
2022/01/07 03:09:17;;;;;;;6.53;3.40;;;;;;;2.02;87.57;101165.75;5028060;28;20100;-65
2022/01/07 03:11:42;;;;;;;10.23;3.90;;;;;;;1.98;88.09;101168.50;5017561;28;20068;-65
2022/01/07 03:14:08;;;;;;;10.32;4.25;;;;;;;1.95;88.38;101152.91;5014321;28;20030;-65
2022/01/07 03:16:33;;;;;;;7.47;3.63;;;;;;;1.89;88.62;101148.75;5029909;28;20037;-65
2022/01/07 03:18:58;;;;;;;11.52;4.20;;;;;;;1.84;88.76;101142.81;5014931;28;20034;-65
2022/01/07 03:21:24;;;;;;;7.82;4.07;;;;;;;1.80;89.29;101134.22;5021921;28;20598;-65
2022/01/07 03:23:49;;;;;;;9.13;4.10;;;;;;;1.80;89.65;101141.22;5024236;28;20109;-66
2022/01/07 03:26:15;;;;;;;9.55;4.35;;;;;;;1.78;89.76;101136.06;5009839;28;20084;-65
2022/01/07 03:28:40;;;;;;;11.52;4.25;;;;;;;1.77;90.30;101133.47;5022170;28;20022;-65
2022/01/07 03:31:06;;;;;;;12.82;4.35;;;;;;;1.75;90.04;101132.66;5021607;28;20026;-66
2022/01/07 03:33:31;;;;;;;11.48;4.53;;;;;;;1.72;90.62;101130.16;5016242;28;20147;-66
2022/01/07 03:35:57;;;;;;;13.25;4.50;;;;;;;1.70;90.66;101127.59;5024772;28;20034;-66
2022/01/07 03:38:22;;;;;;;12.65;4.55;;;;;;;1.71;90.63;101125.81;5027193;28;20463;-65
2022/01/07 03:40:48;;;;;;;8.52;4.57;;;;;;;1.72;91.09;101130.16;5027289;28;20045;-65
2022/01/07 03:43:14;;;;;;;14.00;4.88;;;;;;;1.72;91.53;101124.94;5021290;28;20030;-66
2022/01/07 03:45:40;;;;;;;9.00;4.57;;;;;;;1.72;91.41;101114.47;5027057;28;20538;-65
2022/01/07 03:48:05;;;;;;;14.00;4.80;;;;;;;1.73;91.51;101129.25;5013345;28;20029;-65
2022/01/07 03:50:31;;;;;;;9.48;4.70;;;;;;;1.71;91.61;101113.59;5019598;28;20073;-65
2022/01/07 03:52:58;;;;;;;11.15;4.55;;;;;;;1.71;91.86;101118.81;5020913;28;20471;-65
2022/01/07 03:55:25;;;;;;;6.95;4.25;;;;;;;1.72;92.24;101117.06;5019233;28;20376;-66
2022/01/07 03:57:51;;;;;;;8.13;4.63;;;;;;;1.71;92.15;101110.13;5018790;28;20120;-65
2022/01/07 04:00:25;;;;;;;7.72;4.88;;;;;;;1.70;92.50;101109.28;5032748;28;20575;-65
2022/01/07 04:02:52;;;;;;;7.68;4.78;;;;;;;1.71;92.53;101099.66;5029445;28;20415;-65
2022/01/07 04:05:21;;;;;;;7.47;4.57;;;;;;;1.71;92.61;101099.66;5032447;28;20099;-64
2022/01/07 04:07:46;;;;;;;8.98;4.90;;;;;;;1.73;92.65;101090.81;5018854;28;20025;-65
2022/01/07 04:10:12;;;;;;;10.60;4.68;;;;;;;1.74;92.85;101094.31;5022581;28;20472;-65
2022/01/07 04:12:37;;;;;;;10.07;4.82;;;;;;;1.74;92.76;101089.06;5028684;28;20032;-66
2022/01/07 04:15:09;;;;;;;9.10;5.18;;;;;;;1.75;93.22;101093.38;5031473;28;20044;-66
2022/01/07 04:17:44;;;;;;;9.10;4.75;;;;;;;1.75;93.49;101088.13;5027060;28;20065;-66
2022/01/07 04:20:13;;;;;;;11.70;4.80;;;;;;;1.75;93.26;101086.41;5032562;28;20429;-66
2022/01/07 04:22:39;;;;;;;9.20;4.72;;;;;;;1.77;93.60;101089.81;5027054;28;20040;-66
2022/01/07 04:25:07;;;;;;;10.60;4.65;;;;;;;1.78;93.53;101088.03;5025738;28;20018;-66
2022/01/07 04:27:32;;;;;;;5.37;4.67;;;;;;;1.81;93.90;101087.94;5025191;28;20032;-65
2022/01/07 04:29:58;;;;;;;8.35;4.63;;;;;;;1.82;93.98;101093.09;5032005;28;20292;-66
2022/01/07 04:32:24;;;;;;;6.93;4.93;;;;;;;1.83;93.98;101091.34;5021675;28;20034;-66
2022/01/07 04:34:49;;;;;;;9.23;4.97;;;;;;;1.87;94.08;101092.09;5026035;28;20112;-66
2022/01/07 04:37:15;;;;;;;9.77;5.22;;;;;;;1.87;94.51;101090.34;5020135;28;20068;-66
2022/01/07 04:39:41;;;;;;;10.95;5.38;;;;;;;1.90;94.60;101095.47;5022159;28;20103;-66
2022/01/07 04:42:06;;;;;;;10.50;5.63;;;;;;;1.91;94.51;101096.31;5028287;28;20464;-65
2022/01/07 04:44:31;;;;;;;8.48;5.30;;;;;;;1.96;94.46;101094.38;5030094;28;20025;-65
2022/01/07 04:46:57;;;;;;;8.98;5.43;;;;;;;1.97;94.61;101085.63;5029684;28;20028;-65
2022/01/07 04:49:22;;;;;;;6.10;4.75;;;;;;;1.98;94.67;101096.03;5023246;28;20514;-67
2022/01/07 04:51:47;;;;;;;8.27;5.18;;;;;;;1.99;94.84;101089.88;5030081;28;20049;-66
2022/01/07 04:54:12;;;;;;;8.40;5.50;;;;;;;2.02;94.74;101092.38;5024392;28;20358;-66
2022/01/07 04:56:38;;;;;;;9.77;5.60;;;;;;;2.03;94.86;101082.75;5030195;28;20079;-65
2022/01/07 04:59:03;;;;;;;8.80;6.00;;;;;;;2.07;94.86;101080.91;5031448;28;20036;-65
2022/01/07 05:01:28;;;;;;;10.80;6.07;;;;;;;2.07;94.86;101080.91;5031549;28;20113;-66
2022/01/07 05:03:54;;;;;;;9.93;5.88;;;;;;;2.08;94.83;101072.09;5030662;28;20399;-66
2022/01/07 05:09:03;;;;;;;8.05;5.78;;;;;;;2.11;95.12;101072.00;5026061;28;21356;-66
2022/01/07 05:11:28;;;;;;;8.52;6.22;;;;;;;2.13;95.04;101064.91;5031634;28;20059;-66
2022/01/07 05:13:54;;;;;;;7.80;6.07;;;;;;;2.15;95.38;101063.09;5022081;28;20030;-66
2022/01/07 05:16:19;;;;;;;10.27;6.30;;;;;;;2.15;95.28;101055.22;5030294;28;20394;-66
2022/01/07 05:18:44;;;;;;;10.57;6.38;;;;;;;2.16;95.41;101049.09;5031599;28;20025;-66
2022/01/07 05:21:09;;;;;;;10.98;6.78;;;;;;;2.17;95.53;101054.28;5031194;28;20482;-66
2022/01/07 05:23:35;;;;;;;11.07;6.90;;;;;;;2.20;95.53;101058.56;5020335;28;20103;-65
2022/01/07 05:26:00;;;;;;;9.40;6.88;;;;;;;2.21;95.63;101060.25;5023431;28;20026;-66
2022/01/07 05:28:25;;;;;;;11.25;7.43;;;;;;;2.22;95.82;101059.34;5031128;28;20037;-66
2022/01/07 05:30:50;;;;;;;8.23;6.55;;;;;;;2.22;95.81;101049.69;5030899;28;20115;-67
2022/01/07 05:33:16;;;;;;;8.93;7.15;;;;;;;2.25;95.78;101054.00;5019558;28;20037;-66
2022/01/07 05:35:41;;;;;;;11.48;7.05;;;;;;;2.29;95.63;101058.19;5027303;28;20075;-67
2022/01/07 05:38:06;;;;;;;10.32;7.28;;;;;;;2.30;95.95;101059.03;5027381;28;20021;-66
2022/01/07 05:40:32;;;;;;;13.55;7.10;;;;;;;2.30;95.69;101054.66;5031403;28;20497;-66
2022/01/07 05:42:57;;;;;;;11.35;7.43;;;;;;;2.31;95.82;101047.63;5030151;28;20506;-67
2022/01/07 05:45:22;;;;;;;9.30;7.30;;;;;;;2.37;95.69;101055.28;5030743;28;20068;-66
2022/01/07 05:47:48;;;;;;;12.00;7.38;;;;;;;2.36;96.03;101056.19;5021534;28;20026;-67
2022/01/07 05:50:13;;;;;;;10.40;7.60;;;;;;;2.37;95.83;101048.25;5025588;28;20433;-67
2022/01/07 05:52:39;;;;;;;12.27;7.90;;;;;;;2.38;96.22;101044.72;5030977;28;20029;-67
2022/01/07 05:55:05;;;;;;;12.85;8.02;;;;;;;2.39;96.12;101042.97;5030786;28;20095;-66
2022/01/07 05:57:31;;;;;;;10.70;7.95;;;;;;;2.43;96.23;101043.69;5016102;28;20025;-67
2022/01/07 05:59:56;;;;;;;13.10;7.93;;;;;;;2.41;95.93;101030.63;5030371;28;20037;-67
2022/01/07 06:02:21;;;;;;;9.75;7.63;;;;;;;2.47;95.98;101040.03;5024845;28;20057;-67
2022/01/07 06:04:47;;;;;;;15.40;8.07;;;;;;;2.46;95.95;101033.94;5030611;28;20031;-67
2022/01/07 06:07:12;;;;;;;11.15;7.70;;;;;;;2.47;95.91;101040.03;5030546;28;20555;-66
2022/01/07 06:09:38;;;;;;;13.85;8.40;;;;;;;2.49;95.91;101038.22;5030750;28;20034;-67
2022/01/07 06:12:03;;;;;;;12.43;7.75;;;;;;;2.49;96.00;101033.81;5029531;28;20029;-67
2022/01/07 06:14:30;;;;;;;14.27;8.43;;;;;;;2.52;95.85;101045.97;5030445;28;20454;-67
2022/01/07 06:16:55;;;;;;;9.00;7.55;;;;;;;2.52;95.74;101043.34;5025822;28;20030;-66
2022/01/07 06:19:21;;;;;;;11.45;8.07;;;;;;;2.54;95.84;101044.97;5027942;28;20025;-68
2022/01/07 06:21:46;;;;;;;13.85;7.95;;;;;;;2.55;95.80;101045.84;5030492;28;20422;-66
2022/01/07 06:24:12;;;;;;;10.93;8.13;;;;;;;2.56;96.08;101053.63;5024722;28;20088;-67
2022/01/07 06:26:38;;;;;;;13.02;8.10;;;;;;;2.58;96.05;101043.06;5033056;28;20120;-67
2022/01/07 06:29:03;;;;;;;11.05;7.63;;;;;;;2.59;95.74;101050.88;5017059;28;20112;-67
2022/01/07 06:31:29;;;;;;;14.05;7.63;;;;;;;2.63;95.97;101051.63;5024159;28;20080;-67
2022/01/07 06:33:54;;;;;;;13.18;7.93;;;;;;;2.65;95.79;101044.56;5011230;28;20476;-67
2022/01/07 06:36:19;;;;;;;13.15;7.95;;;;;;;2.65;95.70;101041.94;5026070;28;20025;-67
2022/01/07 06:38:45;;;;;;;15.00;7.90;;;;;;;2.68;95.78;101041.81;5010554;28;20044;-67
2022/01/07 06:41:10;;;;;;;13.45;8.25;;;;;;;2.68;95.85;101052.31;5023905;28;20045;-67
2022/01/07 06:43:35;;;;;;;15.52;8.63;;;;;;;2.69;96.04;101045.28;5021272;28;20030;-67
2022/01/07 06:46:01;;;;;;;13.20;9.30;;;;;;;2.71;95.75;101052.16;5020009;28;20030;-68
2022/01/07 06:48:26;;;;;;;18.90;8.90;;;;;;;2.73;95.73;101050.34;5031296;28;20029;-68
2022/01/07 06:50:51;;;;;;;13.82;8.25;;;;;;;2.74;95.60;101051.19;5023060;28;20037;-68
2022/01/07 06:53:16;;;;;;;15.88;8.82;;;;;;;2.77;95.69;101045.81;5026269;28;20443;-67
2022/01/07 06:55:42;;;;;;;17.88;8.65;;;;;;;2.79;95.65;101049.22;5031941;28;20104;-67
2022/01/07 06:58:07;;;;;;;13.80;9.10;;;;;;;2.80;95.61;101044.81;5031758;28;20471;-67
2022/01/07 07:00:33;;;;;;;15.23;9.20;;;;;;;2.82;95.53;101038.63;5031589;28;20048;-69
2022/01/07 07:02:58;;;;;;;15.05;8.90;;;;;;;2.84;95.72;101038.56;5028274;28;20404;-67
2022/01/07 07:05:24;;;;;;;13.57;9.07;;;;;;;2.84;95.69;101042.00;5031993;28;20030;-67
2022/01/07 07:07:50;;;;;;;15.75;9.38;;;;;;;2.84;95.61;101044.63;5022615;28;20084;-68
2022/01/07 07:10:15;;;;;;;11.55;8.85;;;;;;;2.86;95.67;101048.03;5031919;28;20387;-67
2022/01/07 07:12:40;;;;;;;14.25;9.15;;;;;;;2.89;95.61;101044.47;5025325;28;20030;-65
2022/01/07 07:15:06;;;;;;;13.68;8.63;;;;;;;2.90;95.65;101049.63;5024113;28;20527;-65
2022/01/07 07:17:33;;;;;;;16.83;9.70;;;;;;;2.91;95.88;101047.88;5032581;28;20049;-66
2022/01/07 07:20:00;;;;;;;16.02;9.48;;;;;;;2.92;95.55;101042.56;5026723;28;20432;-66
2022/01/07 07:22:25;;;;;;;14.82;9.27;;;;;;;2.95;95.58;101054.72;5016707;28;20025;-65
2022/01/07 07:24:51;;;;;;;19.10;9.43;;;;;;;2.97;95.48;101055.50;5020528;28;20220;-66
2022/01/07 07:27:16;;;;;;;15.15;9.38;;;;;;;2.97;95.61;101052.88;5016751;28;20088;-66
2022/01/07 07:29:41;;;;;;;16.83;9.00;;;;;;;2.96;95.75;101049.41;5019286;28;20029;-66
2022/01/07 07:32:09;;;;;;;17.98;9.30;;;;;;;3.00;95.57;101047.50;5014818;28;20065;-66
2022/01/07 07:37:07;;;;;;;16.60;10.00;;;;;;;3.04;95.62;101050.84;5019240;28;20041;-66
2022/01/07 07:39:34;;;;;;;13.65;9.20;;;;;;;3.05;95.51;101047.28;5013778;28;20147;-66
2022/01/07 07:41:59;;;;;;;18.15;10.35;;;;;;;3.05;95.46;101050.78;5015236;28;20045;-66
2022/01/07 07:44:24;;;;;;;17.35;9.27;;;;;;;3.08;95.55;101041.91;5015065;28;20127;-66
2022/01/07 07:46:51;;;;;;;15.13;9.50;;;;;;;3.11;95.24;101036.53;5013075;28;20021;-67
2022/01/07 07:49:16;;;;;;;17.10;9.23;;;;;;;3.12;95.25;101031.22;5013036;28;20085;-66
2022/01/07 07:51:42;;;;;;;16.52;9.25;;;;;;;3.13;95.15;101032.94;5027719;28;20099;-66
2022/01/07 07:54:08;;;;;;;21.23;9.57;;;;;;;3.14;95.38;101036.41;5030211;28;20034;-67
2022/01/07 07:56:34;;;;;;;21.13;9.98;;;;;;;3.14;95.33;101042.50;5026487;28;20038;-66
2022/01/07 07:58:59;;;;;;;14.55;9.13;;;;;;;3.16;95.26;101050.31;5032888;28;20045;-66
2022/01/07 08:01:27;;;;;;;16.70;9.88;;;;;;;3.17;95.18;101046.78;5032700;28;20108;-68
2022/01/07 08:03:52;;;;;;;15.85;9.48;;;;;;;3.20;95.16;101051.03;5028351;28;20034;-67
2022/01/07 08:06:17;;;;;;;16.60;9.68;;;;;;;3.21;95.13;101052.75;5029659;28;20073;-68
2022/01/07 08:08:43;;;;;;;14.50;9.98;;;;;;;3.21;95.14;101050.97;5016489;28;20091;-67
2022/01/07 08:11:11;;;;;;;16.45;9.35;;;;;;;3.23;95.04;101036.03;5032101;28;20037;-66
2022/01/07 08:16:23;;;;;;;15.32;9.65;;;;;;;3.29;94.96;101043.63;5022559;28;20044;-66
2022/01/07 08:18:50;;;;;;;13.68;9.32;;;;;;;3.30;94.96;101041.88;5032111;28;20044;-66
2022/01/07 08:21:16;;;;;;;13.70;9.25;;;;;;;3.30;94.86;101031.38;5035771;28;20037;-67
2022/01/07 08:23:43;;;;;;;15.55;9.13;;;;;;;3.31;94.92;101023.44;5021724;28;20468;-67
2022/01/07 08:26:10;;;;;;;15.05;9.20;;;;;;;3.31;94.80;101015.56;5019711;28;20038;-66
2022/01/07 08:28:41;;;;;;;17.52;9.32;;;;;;;3.32;94.91;101011.16;5017541;28;20042;-66
2022/01/07 08:36:20;;;;;;;16.45;8.90;;;;;;;3.35;94.68;101024.16;5033908;28;20091;-67
2022/01/07 08:38:45;;;;;;;15.15;9.27;;;;;;;3.34;94.67;101023.28;5021269;28;20050;-67
2022/01/07 08:41:11;;;;;;;15.55;8.75;;;;;;;3.35;94.77;101018.88;5020817;28;20084;-67
2022/01/07 08:43:37;;;;;;;13.82;9.50;;;;;;;3.36;94.60;101023.19;5019808;28;20041;-67
2022/01/07 08:46:04;;;;;;;19.45;9.90;;;;;;;3.38;94.95;101026.63;5033112;28;20060;-67
2022/01/07 08:48:30;;;;;;;18.52;9.68;;;;;;;3.40;94.69;101027.41;5025688;28;20053;-67
2022/01/07 08:50:55;;;;;;;16.35;10.07;;;;;;;3.42;94.70;101025.56;5033008;28;20132;-68
2022/01/07 08:53:20;;;;;;;14.52;9.60;;;;;;;3.43;94.60;101036.91;5032028;28;20116;-67
2022/01/07 08:55:47;;;;;;;15.85;9.52;;;;;;;3.45;94.55;101040.34;5030798;28;20652;-68
2022/01/07 08:58:12;;;;;;;21.33;9.43;;;;;;;3.45;94.65;101040.34;5025541;28;20072;-67
2022/01/07 09:00:37;;;;;;;16.25;9.35;;;;;;;3.47;94.83;101046.38;5029734;28;20116;-68
2022/01/07 09:03:03;;;;;;;13.45;8.90;;;;;;;3.48;94.43;101040.19;5030990;28;20112;-67
2022/01/07 09:05:28;;;;;;;13.52;9.27;;;;;;;3.49;94.21;101036.66;5039057;28;20112;-67
2022/01/07 09:07:53;;;;;;;12.75;8.95;;;;;;;3.51;94.39;101032.19;5015497;28;20499;-67
2022/01/07 09:10:19;;;;;;;18.75;9.63;;;;;;;3.51;94.24;101034.81;5023739;28;20079;-67
2022/01/07 09:12:45;;;;;;;16.23;9.07;;;;;;;3.52;94.27;101036.53;5028570;28;20044;-68
2022/01/07 09:15:10;;;;;;;15.88;8.90;;;;;;;3.56;94.07;101038.06;5031863;28;20033;-68
2022/01/07 09:17:36;;;;;;;18.33;9.48;;;;;;;3.52;94.32;101034.75;5029870;28;20044;-68
2022/01/07 09:20:03;;;;;;;13.73;8.30;;;;;;;3.55;94.37;101038.16;5028372;28;20117;-68
2022/01/07 09:22:28;;;;;;;18.02;8.52;;;;;;;3.56;94.28;101038.06;5021060;28;20034;-68
2022/01/07 09:24:53;;;;;;;12.80;8.60;;;;;;;3.55;94.23;101035.53;5029621;28;20095;-68
2022/01/07 09:27:19;;;;;;;15.73;8.50;;;;;;;3.57;94.24;101029.28;5030270;28;20047;-68
2022/01/07 09:29:44;;;;;;;13.85;8.18;;;;;;;3.61;93.72;101030.00;5030905;28;20450;-69
2022/01/07 09:32:09;;;;;;;13.50;8.50;;;;;;;3.63;93.74;101025.53;5027831;28;20029;-69
2022/01/07 09:34:36;;;;;;;15.45;7.95;;;;;;;3.64;93.68;101035.13;5030445;28;20045;-68
2022/01/07 09:37:05;;;;;;;15.95;9.27;;;;;;;3.69;94.07;101036.63;5031274;28;20128;-69
2022/01/07 09:39:32;;;;;;;;;;;;;;;3.76;93.59;101023.22;5024903;28;20044;-69
2022/01/07 09:41:59;;;;;;;13.65;7.57;;;;;;;3.78;93.37;101018.72;5011636;28;19915;-69
2022/01/07 09:44:24;;;;;;;15.80;7.65;;;;;;;3.80;93.48;101024.78;5011105;28;20041;-69
2022/01/07 09:46:49;;;;;;;15.98;8.15;;;;;;;3.84;93.71;101034.22;5011414;28;20034;-69
2022/01/07 09:49:15;;;;;;;11.73;7.35;;;;;;;3.89;93.67;101030.47;5010982;28;20132;-69
2022/01/07 09:51:41;;;;;;;13.60;7.60;;;;;;;3.97;93.23;101026.66;5011068;28;20068;-69
2022/01/07 09:54:07;;;;;;;12.45;7.38;;;;;;;4.01;92.85;101021.19;5010996;28;20040;-69
2022/01/07 09:56:33;;;;;;;13.38;7.75;;;;;;;4.04;93.05;101017.53;5010952;28;20080;-69
2022/01/07 09:58:58;;;;;;;16.38;7.53;;;;;;;4.08;92.69;101013.88;5011050;28;20333;-69
2022/01/07 10:01:25;;;;;;;10.98;6.95;;;;;;;4.10;92.55;101021.66;5010841;28;20038;-69
2022/01/07 10:03:51;;;;;;;10.23;6.70;;;;;;;4.12;92.34;101011.94;5010916;28;20112;-69
2022/01/07 10:06:22;;;;;;;10.30;6.68;;;;;;;4.13;91.80;101019.75;5018473;28;20120;-69
2022/01/07 10:09:12;;;;;;;10.60;6.65;;;;;;;4.17;91.71;101012.56;5030441;28;20036;-69
2022/01/07 10:11:38;;;;;;;11.68;7.00;;;;;;;4.17;91.48;101013.41;5022608;28;20306;-69
2022/01/07 10:14:20;;;;;;;11.23;6.22;;;;;;;4.20;90.95;101020.31;5030355;28;20030;-69
2022/01/07 10:16:54;;;;;;;12.13;6.65;;;;;;;4.23;91.21;101017.53;5030466;28;20022;-69
2022/01/07 10:19:39;;;;;;;13.75;6.90;;;;;;;4.26;91.17;101014.75;5018088;28;20328;-69
2022/01/07 10:22:10;;;;;;;12.93;7.45;;;;;;;4.29;90.75;101019.03;5030274;28;20021;-68
2022/01/07 10:25:19;;;;;;;11.02;5.82;;;;;;;4.33;91.04;101013.56;5028376;28;20095;-70
2022/01/07 10:27:44;;;;;;;10.65;5.82;;;;;;;4.35;90.97;101002.97;4969048;28;20135;-69
2022/01/07 10:30:15;;;;;;;12.80;6.53;;;;;;;4.41;91.11;100994.75;5020728;28;20073;-68
2022/01/07 10:32:41;;;;;;;12.13;6.28;;;;;;;4.50;90.50;100990.84;5028530;28;20487;-69
2022/01/07 10:35:15;;;;;;;16.75;5.95;;;;;;;4.55;90.11;100994.94;5030087;28;20042;-69
2022/01/07 10:37:54;;;;;;;10.35;5.60;;;;;;;4.64;89.24;101007.63;5030299;28;20387;-70
2022/01/07 10:40:21;;;;;;;10.70;5.32;;;;;;;4.72;89.34;100998.53;5027039;28;20399;-69
2022/01/07 10:42:46;;;;;;;10.73;5.85;;;;;;;4.79;89.92;100987.59;5023175;28;20108;-69
2022/01/07 10:45:11;;;;;;;12.32;5.47;;;;;;;4.85;89.14;100977.72;5032338;28;20084;-69
2022/01/07 10:47:37;;;;;;;11.82;5.60;;;;;;;4.93;89.07;100983.44;5034139;28;20025;-70
2022/01/07 10:50:23;;;;;;;12.25;5.65;;;;;;;4.99;88.91;100986.59;5028626;28;20042;-70
2022/01/07 10:52:48;;;;;;;16.45;5.25;;;;;;;5.07;88.10;100993.28;5034185;28;20033;-70
2022/01/07 10:55:19;;;;;;;9.63;5.30;;;;;;;5.09;87.69;100980.88;5034003;28;20040;-70
2022/01/07 10:57:50;;;;;;;10.23;5.28;;;;;;;5.11;87.32;100984.28;5030338;28;20085;-70
2022/01/07 11:00:18;;;;;;;14.38;5.32;;;;;;;5.15;87.61;100981.41;5028753;28;20483;-69
2022/01/07 11:02:44;;;;;;;9.40;5.00;;;;;;;5.21;87.77;100979.38;5033895;28;20526;-69
2022/01/07 11:05:09;;;;;;;13.27;4.78;;;;;;;5.29;87.42;100985.09;5020892;28;20041;-69
2022/01/07 11:07:38;;;;;;;16.70;5.53;;;;;;;5.35;88.16;100977.72;5032844;28;20032;-69
2022/01/07 11:10:05;;;;;;;14.95;5.30;;;;;;;5.43;87.80;100976.47;5033683;28;20498;-70
2022/01/07 11:12:32;;;;;;;10.13;4.78;;;;;;;5.50;87.54;100975.22;5020680;28;20030;-71
2022/01/07 11:14:58;;;;;;;13.52;4.90;;;;;;;5.55;87.39;100976.69;5033577;28;20101;-70
2022/01/07 11:17:24;;;;;;;10.60;4.90;;;;;;;5.56;86.60;100977.50;5030671;28;20025;-71
2022/01/07 11:20:01;;;;;;;12.70;4.88;;;;;;;5.56;86.50;100985.41;5033538;28;20029;-70
2022/01/07 11:22:28;;;;;;;9.30;4.57;;;;;;;5.50;86.21;100996.31;5033561;28;20025;-69
2022/01/07 11:24:56;;;;;;;9.77;5.07;;;;;;;5.41;86.59;100978.34;5029365;28;20518;-68
2022/01/07 11:27:26;;;;;;;8.63;4.53;;;;;;;5.37;88.24;100975.03;5023979;28;20026;-69
2022/01/07 11:30:10;;;;;;;13.40;5.00;;;;;;;5.33;87.90;100976.97;5033526;28;20581;-69
2022/01/07 11:32:39;;;;;;;15.60;5.15;;;;;;;5.36;87.41;100984.72;5033324;28;20084;-69
2022/01/07 11:35:17;;;;;;;10.77;4.75;;;;;;;5.40;87.92;100980.13;5019722;28;20037;-69
2022/01/07 11:37:44;;;;;;;10.40;4.80;;;;;;;5.40;88.12;100974.88;5033198;28;20029;-69